Terminal Aerodrome Forecast
Issued by NWS

Home | Current Version | Previous Version | Text Only | Print | Product List | Glossary On
Versions: 1 2 3 4 5 6 7 8 9 10 11 12 13 14 15 16 17 18 19 20 21 22 23 24 25 26 27 28
000
FTUS45 KBYZ 020533
TAFLVM
TAF
KLVM 020533Z 0206/0306 23008KT P6SM SKC
     FM021000 27012KT P6SM SCT120
     FM022000 08016G26KT P6SM VCSH SCT030 BKN060
     FM022300 08020G30KT 3SM -SN SCT014 OVC035
     FM030200 08020G30KT 1/2SM SN BLSN BKN006 OVC012=

USA.gov is the U.S. government's official web portal to all federal, state and local government web resources and services.